Time;durP1;ratioP1;P1;durP2;ratioP2;P2;SDS_P1;SDS_P2;PMS_P1;PMS_P2;Temp;Humidity;BMP_temperature;BMP_pressure;BME280_temperature;BME280_humidity;BME280_pressure;Samples;Min_cycle;Max_cycle;Signal;HPM_P1;HPM_P2
2021/12/16 00:01:51;;;;;;;20.13;17.50;;;;;;;10.34;60.95;99563.06;8314800;28;20426;-83
2021/12/16 00:10:23;;;;;;;20.63;18.50;;;;;;;9.92;62.19;99571.47;8304033;28;20235;-79
2021/12/16 00:31:57;;;;;;;19.27;17.20;;;;;;;10.36;60.96;99580.25;8314005;28;20233;-83
2021/12/16 00:36:01;;;;;;;20.60;18.60;;;;;;;10.29;61.09;99575.19;8315374;28;20236;-83
2021/12/16 00:40:08;;;;;;;20.27;18.20;;;;;;;10.29;60.88;99570.84;8328253;28;20239;-83
2021/12/16 00:44:21;;;;;;;20.40;18.33;;;;;;;10.32;60.96;99575.19;8347206;28;20248;-82
2021/12/16 00:48:49;;;;;;;21.07;18.03;;;;;;;10.14;61.33;99573.72;8346548;28;20228;-83
2021/12/16 00:57:12;;;;;;;19.13;17.20;;;;;;;10.27;61.34;99582.97;8294833;28;20233;-81
2021/12/16 01:01:29;;;;;;;20.47;18.43;;;;;;;10.21;61.31;99584.81;8313699;28;20240;-81
2021/12/16 01:06:03;;;;;;;20.73;18.70;;;;;;;10.12;61.32;99581.50;8314195;28;20233;-81
2021/12/16 01:36:45;;;;;;;21.40;19.40;;;;;;;9.98;62.20;99591.22;8320056;28;20239;-83
2021/12/16 01:49:45;;;;;;;21.60;19.40;;;;;;;9.98;61.93;99586.06;8321741;28;20204;-83
2021/12/16 01:54:15;;;;;;;21.57;19.47;;;;;;;9.98;62.08;99579.13;8319285;28;20231;-82
2021/12/16 01:58:18;;;;;;;21.37;19.37;;;;;;;9.99;61.88;99582.56;8318818;28;20228;-83
2021/12/16 02:02:34;;;;;;;20.43;18.53;;;;;;;10.01;62.45;99586.00;8319746;28;20427;-82
2021/12/16 02:06:47;;;;;;;21.73;19.70;;;;;;;10.25;61.51;99583.88;8319241;28;20235;-82
2021/12/16 02:11:05;;;;;;;21.93;19.67;;;;;;;10.20;61.31;99585.69;8319512;28;20243;-82
2021/12/16 02:28:34;;;;;;;21.90;19.87;;;;;;;10.00;61.54;99573.09;8273566;28;20228;-81
2021/12/16 02:32:47;;;;;;;22.90;20.77;;;;;;;10.06;61.13;99566.06;8318398;28;20237;-82
2021/12/16 02:36:53;;;;;;;22.30;20.20;;;;;;;10.16;61.22;99564.19;8317949;28;20236;-82
2021/12/16 02:40:57;;;;;;;20.90;18.90;;;;;;;9.94;62.07;99567.13;8317876;28;20237;-83
2021/12/16 02:49:21;;;;;;;21.07;19.13;;;;;;;9.91;61.56;99574.94;8294319;28;20239;-82
2021/12/16 02:53:24;;;;;;;21.80;19.70;;;;;;;9.95;61.63;99575.75;8317456;28;20543;-82
2021/12/16 02:57:29;;;;;;;21.73;19.63;;;;;;;10.06;61.58;99573.00;8317995;28;20237;-82
2021/12/16 03:01:35;;;;;;;21.63;19.53;;;;;;;9.95;61.49;99576.59;8318907;28;20251;-81
2021/12/16 03:05:39;;;;;;;21.57;19.57;;;;;;;9.92;62.18;99576.66;8317419;28;20260;-81
2021/12/16 03:14:20;;;;;;;21.50;19.40;;;;;;;9.95;61.46;99586.09;8316925;28;20237;-83
2021/12/16 03:18:32;;;;;;;23.53;21.13;;;;;;;9.91;61.57;99584.44;8283897;28;20547;-82
2021/12/16 03:22:55;;;;;;;22.23;20.03;;;;;;;10.04;61.52;99577.34;8283933;28;20240;-83
2021/12/16 03:32:07;;;;;;;21.33;19.43;;;;;;;9.86;61.96;99578.47;8416815;27;20379;-83
2021/12/16 03:36:25;;;;;;;22.10;20.07;;;;;;;9.87;61.97;99577.59;8409905;28;20231;-82
2021/12/16 03:40:29;;;;;;;22.80;20.70;;;;;;;9.87;61.52;99578.47;8403054;28;20249;-82
2021/12/16 03:44:48;;;;;;;22.60;20.43;;;;;;;9.66;61.91;99604.66;8409055;28;20403;-82
2021/12/16 03:48:58;;;;;;;21.53;19.33;;;;;;;9.88;61.75;99598.28;8408969;28;20240;-82
2021/12/16 03:53:01;;;;;;;20.80;18.83;;;;;;;9.87;61.28;99599.16;8408599;28;20238;-82
2021/12/16 03:57:07;;;;;;;21.53;19.53;;;;;;;9.85;61.45;99597.47;8408627;28;20227;-82
2021/12/16 04:01:21;;;;;;;22.53;20.40;;;;;;;9.79;61.49;99606.19;8408096;28;20249;-82
2021/12/16 04:05:26;;;;;;;21.03;19.07;;;;;;;10.01;60.75;99598.94;8408080;28;20223;-81
2021/12/16 04:09:31;;;;;;;20.23;18.40;;;;;;;10.09;60.80;99612.63;8408129;28;20239;-82
2021/12/16 04:13:41;;;;;;;20.93;19.00;;;;;;;10.07;60.57;99608.34;8408169;28;20418;-82
2021/12/16 04:17:44;;;;;;;21.37;19.27;;;;;;;9.94;61.10;99611.13;8408058;28;20227;-82
2021/12/16 04:22:10;;;;;;;21.47;19.47;;;;;;;9.85;60.81;99616.44;8408192;28;20419;-82
2021/12/16 04:26:14;;;;;;;22.20;19.90;;;;;;;9.85;61.10;99600.06;8407768;28;20234;-82
2021/12/16 04:30:18;;;;;;;21.00;19.00;;;;;;;9.82;61.06;99607.88;8407410;28;20239;-81
2021/12/16 04:34:22;;;;;;;20.50;18.70;;;;;;;9.86;61.23;99620.75;8407608;28;20231;-82
2021/12/16 04:38:27;;;;;;;21.60;19.60;;;;;;;9.80;60.97;99613.06;8407358;28;20584;-81
2021/12/16 04:42:30;;;;;;;21.77;19.87;;;;;;;9.81;61.01;99614.78;8388176;28;20235;-82
2021/12/16 04:46:34;;;;;;;22.07;19.87;;;;;;;9.81;61.25;99617.38;8385591;28;20227;-82
2021/12/16 04:50:37;;;;;;;21.10;19.10;;;;;;;9.87;61.16;99606.91;8385197;28;20232;-83
2021/12/16 04:54:42;;;;;;;20.37;18.37;;;;;;;9.81;60.93;99613.94;8384959;28;20234;-82
2021/12/16 04:58:48;;;;;;;21.77;19.53;;;;;;;9.87;61.15;99616.44;8391613;28;20242;-82
2021/12/16 05:02:52;;;;;;;21.40;19.40;;;;;;;9.80;61.04;99613.06;8418263;28;20235;-82
2021/12/16 05:06:55;;;;;;;21.37;19.37;;;;;;;9.81;60.97;99609.59;8418205;28;20305;-82
2021/12/16 05:11:03;;;;;;;21.53;19.63;;;;;;;9.77;60.85;99618.28;8417828;28;20238;-82
2021/12/16 05:15:09;;;;;;;21.17;19.17;;;;;;;9.74;61.14;99626.09;8417784;28;20237;-81
2021/12/16 05:19:12;;;;;;;20.83;18.90;;;;;;;9.72;61.08;99620.09;8417093;28;20421;-81
2021/12/16 05:27:37;;;;;;;21.30;19.30;;;;;;;9.91;60.61;99637.03;8417198;28;20230;-82
2021/12/16 05:31:40;;;;;;;22.10;20.20;;;;;;;9.84;60.99;99635.41;8416583;28;20241;-82
2021/12/16 05:35:44;;;;;;;22.33;20.03;;;;;;;9.83;60.70;99633.72;8416640;28;20421;-81
2021/12/16 05:39:47;;;;;;;22.50;20.50;;;;;;;9.77;60.91;99634.66;8416649;28;20238;-82
2021/12/16 05:43:51;;;;;;;21.93;19.87;;;;;;;9.73;61.07;99632.16;8416574;28;20231;-82
2021/12/16 05:47:57;;;;;;;20.83;18.93;;;;;;;9.85;60.69;99641.47;8416498;28;20235;-83
2021/12/16 05:52:00;;;;;;;21.07;18.90;;;;;;;9.81;60.97;99653.59;8387526;28;20241;-83
2021/12/16 05:56:03;;;;;;;21.77;19.77;;;;;;;9.73;60.96;99666.63;8349788;28;20247;-84
2021/12/16 06:00:18;;;;;;;22.50;20.27;;;;;;;9.74;61.16;99668.34;8349784;28;20240;-83
2021/12/16 06:04:21;;;;;;;22.30;20.23;;;;;;;9.79;61.52;99663.97;8349279;28;20403;-83
2021/12/16 06:08:24;;;;;;;22.90;20.70;;;;;;;9.79;61.27;99669.13;8356895;28;20227;-83
2021/12/16 06:12:28;;;;;;;21.03;19.07;;;;;;;9.83;61.64;99671.69;8361505;28;20232;-82
2021/12/16 06:29:45;;;;;;;23.13;20.83;;;;;;;9.82;60.94;99693.25;8348857;28;20235;-83
2021/12/16 06:33:50;;;;;;;22.40;20.30;;;;;;;9.87;60.97;99688.88;8349143;28;20228;-82
2021/12/16 06:37:55;;;;;;;22.97;20.77;;;;;;;9.84;60.88;99686.31;8348740;28;20243;-82
2021/12/16 06:41:58;;;;;;;22.20;20.10;;;;;;;9.89;60.91;99694.88;8348437;28;20243;-82
2021/12/16 06:46:04;;;;;;;23.13;21.03;;;;;;;9.86;60.85;99692.31;8348787;28;20232;-82
2021/12/16 06:50:10;;;;;;;23.80;21.40;;;;;;;9.86;61.03;99687.16;8364074;28;20432;-82
2021/12/16 06:54:21;;;;;;;22.83;20.73;;;;;;;9.88;60.99;99696.63;8371611;28;20423;-81
2021/12/16 06:58:31;;;;;;;23.87;21.57;;;;;;;9.85;60.80;99701.00;8380961;28;20235;-82
2021/12/16 07:02:45;;;;;;;22.93;20.63;;;;;;;9.87;61.17;99707.84;8380815;28;20246;-82
2021/12/16 07:06:50;;;;;;;24.33;21.83;;;;;;;9.85;61.20;99701.00;8380880;28;20593;-82
2021/12/16 07:10:55;;;;;;;23.73;21.50;;;;;;;9.84;60.90;99704.44;8380523;28;20438;-82
2021/12/16 07:14:58;;;;;;;23.63;21.33;;;;;;;9.92;60.77;99697.44;8380875;28;20552;-82
2021/12/16 07:19:02;;;;;;;23.50;21.30;;;;;;;9.82;60.88;99703.59;8380801;28;20258;-82
2021/12/16 07:23:08;;;;;;;22.83;20.63;;;;;;;9.88;60.66;99691.44;8380556;28;20237;-82
2021/12/16 07:27:12;;;;;;;23.37;21.17;;;;;;;9.80;60.94;99706.19;8372328;28;20234;-82
2021/12/16 07:31:15;;;;;;;22.17;20.17;;;;;;;9.91;60.89;99700.91;8372334;28;20231;-81
2021/12/16 07:35:20;;;;;;;22.77;20.60;;;;;;;9.85;60.70;99716.50;8380590;28;20231;-81
2021/12/16 07:39:29;;;;;;;22.90;20.73;;;;;;;9.88;60.88;99727.69;8380449;28;20242;-82
2021/12/16 07:43:54;;;;;;;22.73;20.53;;;;;;;9.86;60.90;99726.84;8380268;28;20246;-82
2021/12/16 07:48:04;;;;;;;24.53;20.40;;;;;;;9.90;60.87;99731.09;8380252;28;20569;-82
2021/12/16 07:52:10;;;;;;;23.20;21.00;;;;;;;9.95;60.84;99738.78;8380324;28;20456;-82
2021/12/16 07:56:15;;;;;;;24.60;22.07;;;;;;;9.92;61.08;99742.28;8379677;28;20417;-81
2021/12/16 08:00:20;;;;;;;23.53;21.23;;;;;;;9.88;61.20;99753.56;8379929;28;20569;-82
2021/12/16 08:04:28;;;;;;;24.57;22.07;;;;;;;9.81;61.76;99757.09;8380073;28;20239;-82
2021/12/16 08:08:31;;;;;;;24.93;22.37;;;;;;;9.80;61.59;99763.13;8380609;28;20250;-82
2021/12/16 08:12:36;;;;;;;25.50;22.87;;;;;;;9.82;60.91;99765.72;8380110;28;20385;-82
2021/12/16 08:16:40;;;;;;;25.33;22.83;;;;;;;9.88;61.66;99769.09;8383046;28;20242;-82
2021/12/16 08:20:43;;;;;;;25.20;22.67;;;;;;;9.90;61.46;99787.16;8386248;28;20232;-82
2021/12/16 08:24:46;;;;;;;25.17;22.67;;;;;;;9.99;60.97;99792.22;8386152;28;20227;-82
2021/12/16 08:28:50;;;;;;;25.83;23.13;;;;;;;9.98;61.14;99791.38;8385736;28;20235;-82
2021/12/16 08:32:55;;;;;;;26.67;23.87;;;;;;;9.98;61.19;99795.69;8385613;28;20337;-82
2021/12/16 08:37:02;;;;;;;25.40;22.90;;;;;;;10.00;60.98;99799.13;8385444;28;20231;-82
2021/12/16 08:41:08;;;;;;;26.50;23.80;;;;;;;9.98;61.00;99804.31;8385249;28;20243;-82
2021/12/16 08:45:15;;;;;;;27.67;24.83;;;;;;;9.97;60.74;99807.75;8385112;28;20417;-82
2021/12/16 08:49:18;;;;;;;26.90;24.20;;;;;;;10.00;60.93;99806.88;8377353;28;20235;-82
2021/12/16 08:53:22;;;;;;;26.70;24.13;;;;;;;10.00;60.92;99804.31;8384970;28;20239;-82
2021/12/16 08:57:26;;;;;;;25.77;23.27;;;;;;;10.03;60.56;99806.84;8385093;28;20310;-82
2021/12/16 09:01:32;;;;;;;25.57;23.07;;;;;;;10.07;60.44;99810.25;8383547;28;20231;-65
2021/12/16 09:05:35;;;;;;;24.50;22.07;;;;;;;10.07;60.90;99825.78;8384942;28;20228;-65
2021/12/16 09:09:40;;;;;;;27.37;24.60;;;;;;;10.09;60.64;99826.59;8384813;28;20235;-65
2021/12/16 09:13:43;;;;;;;25.63;23.13;;;;;;;10.07;60.75;99825.78;8384681;28;20223;-65
2021/12/16 09:17:48;;;;;;;27.17;24.50;;;;;;;10.10;60.99;99838.69;8384585;28;20234;-65
2021/12/16 09:21:51;;;;;;;26.60;24.00;;;;;;;10.07;61.02;99837.00;8384392;28;20550;-65
2021/12/16 09:25:54;;;;;;;26.50;23.87;;;;;;;10.14;61.13;99846.38;8384348;28;20538;-65
2021/12/16 09:29:58;;;;;;;27.47;24.53;;;;;;;10.13;60.89;99857.63;8368650;28;20507;-65
2021/12/16 09:34:07;;;;;;;27.07;24.20;;;;;;;10.17;61.06;99855.88;8382110;28;20232;-64
2021/12/16 09:38:11;;;;;;;28.90;25.37;;;;;;;10.39;68.93;99856.47;8383904;28;20236;-64
2021/12/16 09:42:14;;;;;;;39.00;29.27;;;;;;;12.07;67.56;99864.94;8383133;28;20235;-63
2021/12/16 09:46:24;;;;;;;25.83;23.03;;;;;;;12.45;56.52;99863.28;8383867;28;20235;-64
2021/12/16 09:50:30;;;;;;;25.33;22.73;;;;;;;11.23;58.51;99856.94;8382620;28;20538;-64
2021/12/16 09:54:34;;;;;;;27.50;24.07;;;;;;;11.05;58.91;99852.06;8350387;28;20228;-66
2021/12/16 09:58:42;;;;;;;26.77;24.00;;;;;;;10.86;59.07;99854.06;8350214;28;20239;-64
2021/12/16 10:02:48;;;;;;;26.10;23.60;;;;;;;10.79;59.39;99849.84;8349997;28;20419;-64
2021/12/16 10:06:54;;;;;;;27.47;24.77;;;;;;;10.73;59.84;99858.56;8349674;28;20243;-63
2021/12/16 10:10:58;;;;;;;27.23;24.43;;;;;;;10.55;59.87;99855.38;8349675;28;20438;-64
2021/12/16 10:17:20;;;;;;;27.50;24.80;;;;;;;10.70;60.00;99850.84;8349457;28;20236;-64
2021/12/16 10:19:31;;;;;;;26.63;23.87;;;;;;;10.71;60.13;99849.97;8349492;28;20542;-63
2021/12/16 10:23:38;;;;;;;29.37;26.13;;;;;;;10.64;60.34;99835.38;8349409;28;20235;-64
2021/12/16 10:27:58;;;;;;;27.13;24.33;;;;;;;10.68;60.31;99837.06;8348791;28;20228;-64
2021/12/16 10:32:01;;;;;;;29.53;26.53;;;;;;;10.50;60.28;99835.59;8348676;28;20236;-64
2021/12/16 10:36:12;;;;;;;28.20;25.30;;;;;;;10.61;60.05;99832.88;8348785;28;20266;-64
2021/12/16 10:40:33;;;;;;;26.90;24.30;;;;;;;10.81;60.44;99829.94;8340229;28;20527;-65
2021/12/16 10:44:37;;;;;;;29.00;26.10;;;;;;;10.62;60.69;99838.00;8348502;28;20232;-64
2021/12/16 10:48:42;;;;;;;28.60;25.80;;;;;;;10.67;60.54;99827.59;8348505;28;20228;-62
2021/12/16 10:52:45;;;;;;;30.07;26.93;;;;;;;10.67;60.22;99825.84;8368209;28;20231;-64
2021/12/16 10:56:54;;;;;;;29.67;26.57;;;;;;;10.52;61.18;99828.66;8381280;28;20234;-64
2021/12/16 11:00:57;;;;;;;29.33;26.27;;;;;;;10.65;60.62;99825.00;8381173;28;20239;-63
2021/12/16 11:05:02;;;;;;;29.13;26.27;;;;;;;10.73;60.17;99820.56;8381166;28;20234;-64
2021/12/16 11:09:35;;;;;;;32.07;26.80;;;;;;;10.77;60.27;99818.78;8381539;28;20242;-63
2021/12/16 11:13:41;;;;;;;28.30;25.40;;;;;;;10.86;60.66;99802.25;8380532;28;20235;-64
2021/12/16 11:17:46;;;;;;;29.47;26.40;;;;;;;10.96;60.08;99777.84;8401163;28;20253;-65
2021/12/16 11:21:49;;;;;;;28.70;25.63;;;;;;;11.05;59.84;99784.63;8414341;28;20234;-64
2021/12/16 11:25:55;;;;;;;28.23;25.43;;;;;;;11.02;59.63;99777.75;8413937;28;20253;-64
2021/12/16 11:30:17;;;;;;;28.40;25.40;;;;;;;11.07;59.49;99783.72;8413777;28;20245;-64
2021/12/16 11:34:20;;;;;;;28.60;25.40;;;;;;;11.13;59.46;99783.59;8413448;28;20226;-65
2021/12/16 11:38:31;;;;;;;28.73;25.73;;;;;;;11.30;59.08;99782.47;8413827;28;20237;-64
2021/12/16 11:42:34;;;;;;;29.53;26.53;;;;;;;11.19;59.11;99771.41;8413285;28;20228;-64
2021/12/16 11:46:43;;;;;;;28.27;24.70;;;;;;;11.25;58.80;99774.78;8413646;28;20287;-65
2021/12/16 11:50:48;;;;;;;28.33;25.33;;;;;;;11.40;58.80;99776.19;8407704;28;20228;-65
2021/12/16 11:54:54;;;;;;;29.13;26.03;;;;;;;11.23;59.31;99775.66;8353761;28;20231;-65
2021/12/16 11:58:57;;;;;;;27.03;24.43;;;;;;;11.32;58.85;99778.09;8353539;28;20236;-64
2021/12/16 12:03:03;;;;;;;28.17;25.23;;;;;;;11.45;59.26;99791.69;8353502;28;20240;-65
2021/12/16 12:07:12;;;;;;;26.50;23.77;;;;;;;11.49;59.16;99789.00;8353410;28;20239;-65
2021/12/16 12:11:18;;;;;;;34.20;30.60;;;;;;;11.55;58.61;99796.66;8352954;28;20535;-64
2021/12/16 12:15:21;;;;;;;25.13;22.53;;;;;;;11.57;59.27;99803.59;8352980;28;20236;-65
2021/12/16 12:19:25;;;;;;;27.43;24.43;;;;;;;11.44;59.69;99810.72;8352867;28;20232;-65
2021/12/16 12:23:28;;;;;;;32.47;29.13;;;;;;;11.20;60.18;99802.53;8352920;28;20240;-65
2021/12/16 12:27:32;;;;;;;29.90;26.80;;;;;;;11.38;60.17;99793.53;8352590;28;20240;-64
2021/12/16 12:31:39;;;;;;;28.90;25.80;;;;;;;11.39;59.68;99797.00;8355273;28;20239;-65
2021/12/16 12:35:43;;;;;;;29.00;24.77;;;;;;;11.41;59.21;99803.88;8360019;28;20235;-64
2021/12/16 12:39:49;;;;;;;36.53;32.73;;;;;;;11.36;60.19;99795.31;8368280;28;20223;-63
2021/12/16 12:43:52;;;;;;;26.97;24.17;;;;;;;11.49;59.07;99791.59;8368059;28;20415;-64
2021/12/16 12:47:59;;;;;;;25.57;23.03;;;;;;;11.64;59.22;99797.41;8357265;28;20270;-63
2021/12/16 12:52:08;;;;;;;26.80;23.90;;;;;;;11.66;58.88;99795.63;8366111;28;20232;-64
2021/12/16 12:56:14;;;;;;;26.23;23.67;;;;;;;11.61;58.47;99790.50;8384696;28;20402;-65
2021/12/16 13:00:28;;;;;;;24.17;21.63;;;;;;;11.71;58.67;99789.47;8384925;28;20236;-62
2021/12/16 13:04:36;;;;;;;26.13;23.33;;;;;;;11.59;59.06;99788.84;8384864;28;20243;-63
2021/12/16 13:08:43;;;;;;;25.90;23.20;;;;;;;11.59;59.61;99800.06;8384741;28;20435;-63
2021/12/16 13:12:52;;;;;;;25.30;22.60;;;;;;;11.52;58.87;99814.06;8384497;28;20291;-64
2021/12/16 13:17:18;;;;;;;25.07;22.37;;;;;;;11.41;60.02;99818.59;8384355;28;20345;-64
2021/12/16 13:30:30;;;;;;;25.60;23.00;;;;;;;11.48;59.51;99791.63;8281829;28;20244;-64
2021/12/16 13:34:41;;;;;;;25.67;22.87;;;;;;;11.51;59.82;99807.16;8331926;28;20529;-64
2021/12/16 13:38:47;;;;;;;25.07;22.47;;;;;;;11.45;59.76;99802.94;8383916;28;20546;-64
2021/12/16 13:42:57;;;;;;;29.73;25.33;;;;;;;11.42;59.31;99805.56;8383417;28;20530;-64
2021/12/16 13:47:07;;;;;;;27.50;23.03;;;;;;;11.41;59.48;99805.63;8383691;28;20239;-64
2021/12/16 14:05:16;;;;;;;26.47;23.60;;;;;;;11.43;59.63;99809.88;8313626;28;20570;-64
2021/12/16 14:09:23;;;;;;;25.77;23.17;;;;;;;11.38;59.81;99816.88;8349807;28;20236;-64
2021/12/16 14:22:58;;;;;;;24.80;22.17;;;;;;;11.37;59.60;99822.13;8382776;28;20235;-65
2021/12/16 14:23:04;;;;;;;24.97;22.47;;;;;;;11.33;59.93;99823.91;8382473;28;20433;-65
2021/12/16 14:27:20;;;;;;;27.90;24.90;;;;;;;11.37;60.06;99825.56;8382472;28;20239;-64
2021/12/16 14:31:57;;;;;;;32.17;28.70;;;;;;;11.35;60.36;99822.16;8382040;28;20288;-64
2021/12/16 14:40:40;;;;;;;26.37;23.43;;;;;;;11.17;59.97;99831.09;8373993;28;20279;-64
2021/12/16 14:49:06;;;;;;;25.60;22.90;;;;;;;11.25;60.25;99846.50;8381170;28;20301;-65
2021/12/16 14:53:25;;;;;;;26.40;23.60;;;;;;;11.30;59.97;99852.50;8381183;28;20243;-64
2021/12/16 14:57:30;;;;;;;27.63;24.83;;;;;;;11.23;60.20;99853.47;8375211;28;20250;-64
2021/12/16 15:01:36;;;;;;;26.53;23.83;;;;;;;11.23;60.48;99845.69;8380817;28;20238;-64
2021/12/16 15:05:44;;;;;;;27.63;24.63;;;;;;;11.25;60.57;99844.81;8380950;28;20228;-64
2021/12/16 15:09:48;;;;;;;26.83;24.13;;;;;;;11.30;60.21;99845.56;8380957;28;20231;-64
2021/12/16 15:13:56;;;;;;;26.67;23.93;;;;;;;11.26;60.42;99866.41;8380886;28;20243;-64
2021/12/16 15:39:56;;;;;;;27.77;24.97;;;;;;;11.07;61.03;99861.50;8380510;28;20235;-81
2021/12/16 15:44:08;;;;;;;27.23;24.07;;;;;;;10.99;61.40;99854.75;8380487;28;20265;-82
2021/12/16 15:48:14;;;;;;;26.23;23.43;;;;;;;11.01;61.20;99847.81;8378355;28;20224;-83
2021/12/16 15:52:17;;;;;;;26.30;23.60;;;;;;;11.08;61.11;99855.44;8359596;28;20235;-83
2021/12/16 15:56:23;;;;;;;24.27;21.70;;;;;;;11.11;60.92;99868.34;8362734;28;20219;-83
2021/12/16 16:00:28;;;;;;;29.00;22.10;;;;;;;11.07;61.42;99871.03;8354386;28;20538;-83
2021/12/16 16:04:34;;;;;;;24.57;22.07;;;;;;;11.18;60.86;99863.09;8357437;28;20254;-81
2021/12/16 16:08:41;;;;;;;26.03;23.37;;;;;;;11.08;61.04;99871.00;8362625;28;20231;-83
2021/12/16 16:12:44;;;;;;;25.03;22.43;;;;;;;11.09;60.75;99872.69;8362497;28;20258;-81
2021/12/16 16:16:53;;;;;;;25.93;23.13;;;;;;;11.11;60.79;99877.88;8354882;28;20239;-81
2021/12/16 16:20:59;;;;;;;25.43;22.77;;;;;;;11.19;60.72;99883.78;8363438;28;20232;-82
2021/12/16 16:25:05;;;;;;;27.70;23.57;;;;;;;11.04;60.74;99882.31;8362754;28;20238;-81
2021/12/16 16:29:11;;;;;;;26.63;22.17;;;;;;;11.07;61.11;99881.41;8365934;28;20224;-82
2021/12/16 16:33:18;;;;;;;25.43;22.73;;;;;;;11.10;60.96;99881.34;8359569;28;20510;-82
2021/12/16 16:37:24;;;;;;;26.53;23.80;;;;;;;11.00;61.02;99875.44;8364990;28;20240;-82
2021/12/16 16:41:29;;;;;;;27.03;22.93;;;;;;;11.06;60.99;99892.63;8368432;28;20224;-82
2021/12/16 16:45:33;;;;;;;24.80;22.20;;;;;;;11.00;61.29;99893.59;8368120;28;20231;-83
2021/12/16 16:49:46;;;;;;;25.27;22.57;;;;;;;11.05;61.10;99890.94;8366782;28;20231;-82
2021/12/16 16:53:55;;;;;;;28.77;25.77;;;;;;;11.06;61.04;99888.31;8367744;28;20242;-82
2021/12/16 16:58:00;;;;;;;28.30;25.27;;;;;;;11.05;61.06;99886.59;8370270;28;20596;-84
2021/12/16 17:02:14;;;;;;;27.83;24.83;;;;;;;10.99;61.49;99883.25;8368223;28;20224;-82
2021/12/16 17:06:21;;;;;;;28.70;25.10;;;;;;;10.98;61.29;99884.13;8378670;28;20515;-80
2021/12/16 17:10:29;;;;;;;27.53;24.33;;;;;;;11.01;61.28;99884.09;8384440;28;20231;-80
2021/12/16 17:14:36;;;;;;;29.63;26.07;;;;;;;11.00;61.20;99884.97;8384487;28;20416;-82
2021/12/16 17:18:42;;;;;;;28.20;25.27;;;;;;;11.00;61.26;99880.63;8384733;28;20235;-83
2021/12/16 17:22:49;;;;;;;29.50;26.50;;;;;;;10.98;61.49;99882.38;8384338;28;20231;-82
2021/12/16 17:26:55;;;;;;;27.20;24.30;;;;;;;11.01;61.31;99887.53;8384358;28;20237;-83
2021/12/16 17:30:58;;;;;;;27.40;24.50;;;;;;;10.96;61.46;99892.78;8384324;28;20455;-84
2021/12/16 17:35:06;;;;;;;28.77;25.93;;;;;;;11.07;61.46;99895.22;8384328;28;20241;-81
2021/12/16 17:39:14;;;;;;;30.23;27.03;;;;;;;10.97;61.39;99878.09;8383907;28;20445;-82
2021/12/16 17:43:20;;;;;;;27.67;24.83;;;;;;;11.00;61.47;99893.59;8375899;28;20231;-82
2021/12/16 17:47:34;;;;;;;30.20;27.10;;;;;;;10.99;61.38;99884.13;8383894;28;20237;-80
2021/12/16 17:51:43;;;;;;;29.20;26.17;;;;;;;10.96;61.46;99877.22;8383023;28;20228;-84
2021/12/16 17:55:51;;;;;;;30.07;25.27;;;;;;;10.98;61.15;99884.13;8382584;28;20238;-84
2021/12/16 17:59:55;;;;;;;26.90;24.00;;;;;;;10.96;61.79;99881.56;8382621;28;20239;-79
2021/12/16 18:04:01;;;;;;;26.83;24.03;;;;;;;10.95;61.33;99887.63;8382883;28;20302;-80
2021/12/16 18:08:05;;;;;;;28.27;25.20;;;;;;;10.96;61.46;99882.41;8382951;28;20239;-79
2021/12/16 18:12:15;;;;;;;28.57;25.57;;;;;;;10.91;61.20;99891.16;8382704;28;20438;-80
2021/12/16 18:16:21;;;;;;;27.70;24.13;;;;;;;10.90;61.32;99892.88;8374764;28;20231;-81
2021/12/16 18:20:28;;;;;;;27.77;24.77;;;;;;;10.91;61.58;99899.78;8382503;28;20235;-80
2021/12/16 18:24:34;;;;;;;29.10;23.93;;;;;;;10.99;61.46;99883.25;8382519;28;20242;-80
2021/12/16 18:28:42;;;;;;;28.70;25.60;;;;;;;10.90;61.78;99899.81;8382307;28;20397;-80
2021/12/16 18:32:52;;;;;;;32.47;26.97;;;;;;;10.84;61.91;99898.16;8367401;28;20228;-82
2021/12/16 18:36:59;;;;;;;32.00;28.60;;;;;;;10.92;61.84;99911.84;8364516;28;20427;-80
2021/12/16 18:41:06;;;;;;;35.60;31.93;;;;;;;10.80;61.91;99912.03;8376057;28;20254;-80
2021/12/16 18:45:15;;;;;;;40.00;35.80;;;;;;;10.89;61.61;99916.22;8373150;28;20235;-64
2021/12/16 18:49:19;;;;;;;31.77;28.67;;;;;;;10.87;62.00;99920.56;8348666;28;20414;-64
2021/12/16 18:57:45;;;;;;;34.57;30.97;;;;;;;10.89;62.11;99927.47;8381156;28;20276;-64
2021/12/16 19:01:53;;;;;;;33.97;30.27;;;;;;;10.88;62.24;99933.50;8380519;28;20556;-63
2021/12/16 19:05:56;;;;;;;33.03;29.23;;;;;;;10.92;62.14;99934.31;8381575;28;20238;-64
2021/12/16 19:10:01;;;;;;;38.13;34.13;;;;;;;10.89;61.95;99943.00;8381327;28;20286;-63
2021/12/16 19:14:04;;;;;;;32.80;29.50;;;;;;;10.94;62.00;99948.97;8351059;28;20235;-63
2021/12/16 19:18:08;;;;;;;36.57;31.93;;;;;;;10.93;61.95;99949.03;8347987;28;20232;-63
2021/12/16 19:22:15;;;;;;;28.83;25.73;;;;;;;10.97;61.87;99955.88;8347938;28;20235;-64
2021/12/16 19:26:18;;;;;;;36.57;32.67;;;;;;;10.85;62.16;99953.44;8350099;28;20218;-64
2021/12/16 19:30:25;;;;;;;74.77;32.37;;;;;;;13.13;70.66;99963.13;8380469;28;20485;-65
2021/12/16 19:34:34;;;;;;;45.30;26.10;;;;;;;13.91;61.62;99962.16;8380421;28;20235;-64
2021/12/16 19:38:39;;;;;;;29.03;25.60;;;;;;;12.30;59.11;99973.56;8380088;28;20238;-64
2021/12/16 19:42:43;;;;;;;33.17;28.63;;;;;;;11.80;59.82;99972.69;8380196;28;20223;-64
2021/12/16 19:46:46;;;;;;;29.40;26.00;;;;;;;11.64;60.63;99979.91;8380096;28;20238;-64
2021/12/16 19:50:56;;;;;;;26.03;23.23;;;;;;;11.57;60.61;99982.63;8379941;28;20235;-64
2021/12/16 19:54:59;;;;;;;27.73;23.93;;;;;;;11.46;60.85;99983.66;8380177;28;20240;-64
2021/12/16 19:59:04;;;;;;;27.83;24.97;;;;;;;11.38;61.38;99982.91;8379843;28;20235;-64
2021/12/16 20:03:08;;;;;;;31.37;27.13;;;;;;;11.23;61.34;99965.88;8367366;28;20230;-63
2021/12/16 20:07:17;;;;;;;32.57;25.53;;;;;;;11.14;61.49;99981.56;8362129;28;20226;-63
2021/12/16 20:11:24;;;;;;;33.27;27.03;;;;;;;11.17;61.41;99980.66;8366697;28;20227;-64
2021/12/16 20:15:31;;;;;;;47.07;42.17;;;;;;;11.07;61.80;99980.78;8368755;28;20231;-64
2021/12/16 20:19:36;;;;;;;32.23;28.80;;;;;;;11.14;61.49;99981.56;8368788;28;20254;-64
2021/12/16 20:23:40;;;;;;;30.03;26.77;;;;;;;11.06;61.79;99973.00;8369057;28;20235;-64
2021/12/16 20:27:46;;;;;;;30.10;26.90;;;;;;;11.15;61.44;99981.50;8368662;28;20224;-63
2021/12/16 20:31:55;;;;;;;29.67;26.57;;;;;;;11.09;61.87;99979.00;8368423;28;20240;-64
2021/12/16 20:36:01;;;;;;;30.17;26.70;;;;;;;11.10;62.19;100000.59;8367711;28;20234;-78
2021/12/16 20:40:09;;;;;;;29.93;26.27;;;;;;;11.02;61.99;99995.53;8364281;28;20240;-79
2021/12/16 20:44:17;;;;;;;36.17;31.47;;;;;;;11.01;62.31;99980.88;8370218;28;20419;-79
2021/12/16 20:48:25;;;;;;;39.67;34.53;;;;;;;10.99;62.14;99985.22;8368166;28;20228;-78
2021/12/16 20:52:32;;;;;;;27.67;24.67;;;;;;;11.07;62.19;99983.38;8367692;28;20228;-79
2021/12/16 20:56:37;;;;;;;32.27;26.87;;;;;;;10.89;62.32;99991.38;8368584;28;20239;-79
2021/12/16 21:00:43;;;;;;;27.47;24.60;;;;;;;10.89;62.67;99999.16;8357114;28;20243;-78
2021/12/16 21:04:47;;;;;;;27.83;24.40;;;;;;;10.87;62.92;99994.03;8367499;28;20232;-77
2021/12/16 21:08:51;;;;;;;28.33;23.67;;;;;;;10.84;63.11;99999.25;8367444;28;20254;-78
2021/12/16 21:12:56;;;;;;;28.30;24.47;;;;;;;10.79;63.04;99988.06;8367416;28;20228;-76
2021/12/16 21:17:00;;;;;;;28.03;25.13;;;;;;;10.80;63.25;99976.00;8367607;28;20323;-76
2021/12/16 21:21:07;;;;;;;31.47;26.87;;;;;;;10.42;64.76;99977.31;8367029;28;20232;-75
2021/12/16 21:25:13;;;;;;;29.17;26.07;;;;;;;10.74;63.78;99984.69;8366707;28;20228;-75
2021/12/16 21:29:18;;;;;;;27.10;24.17;;;;;;;10.84;63.46;99972.47;8352816;28;20231;-74
2021/12/16 21:33:25;;;;;;;27.33;24.43;;;;;;;10.87;63.15;99975.88;8359485;28;20223;-75
2021/12/16 21:37:29;;;;;;;35.63;29.07;;;;;;;10.67;63.76;99983.06;8364786;28;20436;-75
2021/12/16 21:41:32;;;;;;;28.30;24.20;;;;;;;10.75;63.50;99982.06;8366402;28;20235;-76
2021/12/16 21:45:38;;;;;;;33.80;26.60;;;;;;;10.79;63.61;99987.22;8365911;28;20235;-75
2021/12/16 21:49:41;;;;;;;25.37;22.63;;;;;;;10.81;63.43;99998.41;8357697;28;20523;-76